createdAt,value
2023-02-15T00:00:21.814Z,19.70
2023-02-15T00:02:49.333Z,20.17
2023-02-15T00:05:16.901Z,17.53
2023-02-15T00:07:44.430Z,14.90
2023-02-15T00:10:13.033Z,14.00
2023-02-15T00:12:40.556Z,12.50
2023-02-15T00:15:08.508Z,12.67
2023-02-15T00:17:35.923Z,13.73
2023-02-15T00:20:03.755Z,12.90
2023-02-15T00:22:31.244Z,12.77
2023-02-15T00:24:58.718Z,12.97
2023-02-15T00:27:26.173Z,12.80
2023-02-15T00:29:53.706Z,13.23
2023-02-15T00:32:21.195Z,15.30
2023-02-15T00:34:49.827Z,15.63
2023-02-15T00:37:17.575Z,14.83
2023-02-15T00:39:48.248Z,15.83
2023-02-15T00:42:15.723Z,13.90
2023-02-15T00:44:43.236Z,13.50
2023-02-15T00:47:10.640Z,13.60
2023-02-15T00:49:39.573Z,14.77
2023-02-15T00:52:07.053Z,15.27
2023-02-15T00:54:35.719Z,16.43
2023-02-15T00:57:03.193Z,17.30
2023-02-15T00:59:30.787Z,17.73
2023-02-15T01:01:58.494Z,16.77
2023-02-15T01:04:26.025Z,16.50
2023-02-15T01:06:53.554Z,16.67
2023-02-15T01:09:21.149Z,15.47
2023-02-15T01:11:48.694Z,16.77
2023-02-15T01:14:16.148Z,14.60
2023-02-15T01:16:43.602Z,17.23
2023-02-15T01:19:11.073Z,18.63
2023-02-15T01:21:41.644Z,18.20
2023-02-15T01:24:15.550Z,16.90
2023-02-15T01:26:43.037Z,18.87
2023-02-15T01:29:10.493Z,19.93
2023-02-15T01:31:40.170Z,20.50
2023-02-15T01:34:07.925Z,20.47
2023-02-15T01:36:36.377Z,20.20
2023-02-15T01:39:04.039Z,20.47
2023-02-15T01:41:32.480Z,20.30
2023-02-15T01:44:04.265Z,19.40
2023-02-15T01:46:51.406Z,19.87
2023-02-15T01:49:23.867Z,19.23
2023-02-15T01:51:53.909Z,20.20
2023-02-15T01:54:34.994Z,19.53
2023-02-15T01:57:12.134Z,20.73
2023-02-15T01:59:43.006Z,16.67
2023-02-15T02:02:16.506Z,16.50
2023-02-15T02:04:56.596Z,16.40
2023-02-15T02:07:30.294Z,17.00
2023-02-15T02:10:02.358Z,17.50
2023-02-15T02:12:30.896Z,16.87
2023-02-15T02:14:59.126Z,23.97
2023-02-15T02:18:28.176Z,27.83
2023-02-15T02:21:12.032Z,25.77
2023-02-15T02:24:18.224Z,20.10
2023-02-15T02:27:23.876Z,25.87
2023-02-15T02:54:08.513Z,17.20
2023-02-15T02:56:42.227Z,15.33
2023-02-15T02:59:30.363Z,11.37
2023-02-15T03:02:17.603Z,10.80
2023-02-15T03:04:59.605Z,11.30
2023-02-15T03:07:30.758Z,13.37
2023-02-15T03:10:03.832Z,11.17
2023-02-15T03:12:38.724Z,13.97
2023-02-15T03:15:22.582Z,13.10
2023-02-15T03:17:57.834Z,12.83
2023-02-15T03:20:32.302Z,12.53
2023-02-15T03:23:10.705Z,12.60
2023-02-15T03:25:47.682Z,13.43
2023-02-15T03:28:22.194Z,13.23
2023-02-15T03:30:55.018Z,50.20
2023-02-15T03:33:25.534Z,19.53
2023-02-15T03:36:23.694Z,43.83
2023-02-15T03:39:14.497Z,35.83
2023-02-15T03:41:58.567Z,15.47
2023-02-15T03:44:33.125Z,10.87
2023-02-15T03:47:09.870Z,10.93
2023-02-15T03:49:59.241Z,16.10
2023-02-15T03:52:29.422Z,16.37
2023-02-15T03:54:57.471Z,19.80
2023-02-15T03:57:48.554Z,73.43
2023-02-15T04:00:44.464Z,13.20
2023-02-15T04:03:24.896Z,10.70
2023-02-15T04:05:52.524Z,12.73
2023-02-15T04:08:20.118Z,19.43
2023-02-15T04:10:53.606Z,17.03
2023-02-15T04:13:23.975Z,17.23
2023-02-15T04:16:08.156Z,15.23
2023-02-15T04:19:03.750Z,12.63
2023-02-15T04:21:50.610Z,12.93
2023-02-15T04:24:37.973Z,14.63
2023-02-15T04:27:06.842Z,14.77
2023-02-15T04:29:34.605Z,15.27
2023-02-15T04:32:03.574Z,15.73
2023-02-15T04:34:31.053Z,15.67
2023-02-15T04:36:58.568Z,17.07
2023-02-15T04:39:26.015Z,19.87
2023-02-15T04:41:53.481Z,18.17
2023-02-15T04:44:20.885Z,17.83
2023-02-15T04:46:48.371Z,16.23
2023-02-15T04:49:16.538Z,17.43
2023-02-15T04:51:43.977Z,25.63
2023-02-15T04:54:11.512Z,23.87
2023-02-15T04:56:39.985Z,25.00
2023-02-15T04:59:08.038Z,24.63
2023-02-15T05:01:35.522Z,25.20
2023-02-15T05:04:03.636Z,27.53
2023-02-15T05:06:31.298Z,26.20
2023-02-15T05:09:00.269Z,28.57
2023-02-15T05:11:29.176Z,30.17
2023-02-15T05:13:56.757Z,29.07
2023-02-15T05:16:24.448Z,22.87
2023-02-15T05:18:52.046Z,20.80
2023-02-15T05:21:22.666Z,20.03
2023-02-15T05:23:50.149Z,20.93
2023-02-15T05:26:43.031Z,22.10
2023-02-15T05:29:11.418Z,21.37
2023-02-15T05:31:39.806Z,24.00
2023-02-15T05:34:07.504Z,22.27
2023-02-15T05:36:34.924Z,22.13
2023-02-15T05:39:02.307Z,20.70
2023-02-15T05:41:30.076Z,22.30
2023-02-15T05:43:57.894Z,23.43
2023-02-15T05:46:25.429Z,22.13
2023-02-15T05:48:52.875Z,24.13
2023-02-15T05:51:20.312Z,24.07
2023-02-15T05:53:47.897Z,25.73
2023-02-15T05:56:15.501Z,27.93
2023-02-15T05:58:44.002Z,28.10
2023-02-15T06:01:14.642Z,30.43
2023-02-15T06:03:42.647Z,34.87
2023-02-15T06:06:10.518Z,32.27
2023-02-15T06:08:39.711Z,27.93
2023-02-15T06:11:07.934Z,26.00
2023-02-15T06:13:38.590Z,24.97
2023-02-15T06:16:07.814Z,22.20
2023-02-15T06:18:36.756Z,27.00
2023-02-15T06:21:04.541Z,24.83
2023-02-15T06:23:32.537Z,25.07
2023-02-15T06:26:00.080Z,32.90
2023-02-15T06:28:27.694Z,47.73
2023-02-15T06:30:55.747Z,42.20
2023-02-15T06:33:23.590Z,37.80
2023-02-15T06:35:51.094Z,37.83
2023-02-15T06:38:18.619Z,35.97
2023-02-15T06:40:46.089Z,30.13
2023-02-15T06:43:13.527Z,29.50
2023-02-15T06:45:42.064Z,28.93
2023-02-15T06:48:09.627Z,27.33
2023-02-15T06:50:37.147Z,25.97
2023-02-15T06:53:04.842Z,25.83
2023-02-15T06:55:32.414Z,22.97
2023-02-15T06:57:59.833Z,23.53
2023-02-15T07:00:27.354Z,20.73
2023-02-15T07:02:59.182Z,19.63
2023-02-15T07:05:32.265Z,19.43
2023-02-15T07:08:01.411Z,24.43
2023-02-15T07:10:31.784Z,21.10
2023-02-15T07:12:59.325Z,19.73
2023-02-15T07:15:26.784Z,20.50
2023-02-15T07:17:54.296Z,18.83
2023-02-15T07:20:24.082Z,19.87
2023-02-15T07:22:52.391Z,20.40
2023-02-15T07:25:20.228Z,19.40
2023-02-15T07:27:47.999Z,21.53
2023-02-15T07:30:18.347Z,20.83
2023-02-15T07:33:05.773Z,21.73
2023-02-15T07:35:34.767Z,21.27
2023-02-15T07:38:02.742Z,19.90
2023-02-15T07:40:30.193Z,22.73
2023-02-15T07:43:00.196Z,19.43
2023-02-15T07:45:28.187Z,22.97
2023-02-15T07:47:55.913Z,24.07
2023-02-15T07:50:23.473Z,18.87
2023-02-15T07:52:50.957Z,17.00
2023-02-15T07:55:19.561Z,17.30
2023-02-15T07:57:49.459Z,16.67
2023-02-15T08:00:22.490Z,19.60
2023-02-15T08:03:13.821Z,16.23
2023-02-15T08:05:43.988Z,16.93
2023-02-15T08:08:30.695Z,20.77
2023-02-15T08:11:22.592Z,17.43
2023-02-15T08:14:00.508Z,18.43
2023-02-15T08:16:42.597Z,18.53
2023-02-15T08:19:11.437Z,17.63
2023-02-15T08:21:42.594Z,19.03
2023-02-15T08:24:12.686Z,17.83
2023-02-15T08:26:42.390Z,16.97
2023-02-15T08:29:11.006Z,19.17
2023-02-15T08:31:39.471Z,17.93
2023-02-15T08:34:07.723Z,17.30
2023-02-15T08:36:35.473Z,17.67
2023-02-15T08:39:06.046Z,18.73
2023-02-15T08:41:36.624Z,17.50
2023-02-15T08:44:07.740Z,19.43
2023-02-15T08:46:38.721Z,17.97
2023-02-15T08:49:06.682Z,16.97
2023-02-15T08:51:37.899Z,16.90
2023-02-15T08:54:09.542Z,15.77
2023-02-15T08:56:40.358Z,15.77
2023-02-15T08:59:17.383Z,14.80
2023-02-15T09:01:46.242Z,15.53
2023-02-15T09:04:14.213Z,14.90
2023-02-15T09:06:46.407Z,15.30
2023-02-15T09:09:16.853Z,14.50
2023-02-15T09:11:47.693Z,14.27
2023-02-15T09:14:18.755Z,14.33
2023-02-15T09:16:49.831Z,15.70
2023-02-15T09:19:19.477Z,14.17
2023-02-15T09:21:47.755Z,13.50
2023-02-15T09:24:18.197Z,12.77
2023-02-15T09:26:49.670Z,13.33
2023-02-15T09:29:19.669Z,13.53
2023-02-15T09:31:51.094Z,12.53
2023-02-15T09:34:22.905Z,13.10
2023-02-15T09:36:52.085Z,13.83
2023-02-15T09:39:26.573Z,13.87
2023-02-15T09:42:13.185Z,14.63
2023-02-15T09:45:05.319Z,12.90
2023-02-15T09:47:54.440Z,11.30
2023-02-15T09:51:03.948Z,13.07
2023-02-15T09:53:53.040Z,12.00
2023-02-15T09:56:29.550Z,11.03
2023-02-15T09:59:57.022Z,10.90
2023-02-15T10:02:43.077Z,11.13
2023-02-15T10:05:47.933Z,11.57
2023-02-15T10:08:54.301Z,11.17
2023-02-15T10:11:43.020Z,12.83
2023-02-15T10:14:38.753Z,13.93
2023-02-15T10:17:15.437Z,10.63
2023-02-15T10:19:55.256Z,11.07
2023-02-15T10:23:29.927Z,8.50
2023-02-15T10:26:15.024Z,9.43
2023-02-15T10:28:58.601Z,9.10
2023-02-15T10:31:51.900Z,7.50
2023-02-15T10:34:40.605Z,7.90
2023-02-15T10:37:54.424Z,10.10
2023-02-15T10:40:34.051Z,9.30
2023-02-15T10:43:49.712Z,11.80
2023-02-15T10:46:38.798Z,9.40
2023-02-15T10:49:27.470Z,7.47
2023-02-15T10:51:57.869Z,7.27
2023-02-15T10:54:42.140Z,7.10
2023-02-15T10:57:56.330Z,8.13
2023-02-15T11:01:03.339Z,8.43
2023-02-15T11:03:59.710Z,8.23
2023-02-15T11:06:29.080Z,8.20
2023-02-15T11:09:04.006Z,15.40
2023-02-15T11:11:46.081Z,8.83
2023-02-15T11:14:55.498Z,9.27
2023-02-15T11:17:51.693Z,9.37
2023-02-15T11:20:33.512Z,8.10
2023-02-15T11:23:03.278Z,9.17
2023-02-15T11:25:35.275Z,9.67
2023-02-15T11:28:11.390Z,10.57
2023-02-15T11:30:55.535Z,10.00
2023-02-15T11:33:36.369Z,9.90
2023-02-15T11:36:19.215Z,10.10
2023-02-15T11:38:52.273Z,10.30
2023-02-15T11:41:29.741Z,11.30
2023-02-15T11:44:12.303Z,10.03
2023-02-15T11:46:40.172Z,10.93
2023-02-15T11:49:27.121Z,10.90
2023-02-15T11:51:57.076Z,18.50
2023-02-15T11:54:36.644Z,10.63
2023-02-15T11:57:33.872Z,11.27
2023-02-15T12:00:27.301Z,11.27
2023-02-15T12:03:01.329Z,11.53
2023-02-15T12:05:29.321Z,12.83
2023-02-15T12:08:10.228Z,11.50
2023-02-15T12:10:50.120Z,11.90
2023-02-15T12:13:20.430Z,11.47
2023-02-15T12:15:52.648Z,12.33
2023-02-15T12:18:48.458Z,11.47
2023-02-15T12:21:27.614Z,11.40
2023-02-15T12:24:03.755Z,11.90
2023-02-15T12:26:36.328Z,11.63
2023-02-15T12:29:29.231Z,11.27
2023-02-15T12:31:57.206Z,13.73
2023-02-15T12:34:44.748Z,12.47
2023-02-15T12:37:35.630Z,12.20
2023-02-15T12:40:24.873Z,12.97
2023-02-15T12:42:52.364Z,11.93
2023-02-15T12:45:33.350Z,12.80
2023-02-15T12:48:21.588Z,12.53
2023-02-15T12:50:55.096Z,11.00
2023-02-15T12:53:34.555Z,10.93
2023-02-15T12:56:08.139Z,11.83
2023-02-15T12:58:41.088Z,12.00
2023-02-15T13:01:22.308Z,12.17
2023-02-15T13:04:05.831Z,12.17
2023-02-15T13:06:36.814Z,11.40
2023-02-15T13:09:21.875Z,10.83
2023-02-15T13:11:49.510Z,13.60
2023-02-15T13:14:29.907Z,11.10
2023-02-15T13:17:02.930Z,11.20
2023-02-15T13:19:43.595Z,12.73
2023-02-15T13:22:36.688Z,10.97
2023-02-15T13:25:23.953Z,10.50
2023-02-15T13:27:59.330Z,10.93
2023-02-15T13:30:36.223Z,11.57
2023-02-15T13:33:33.192Z,13.30
2023-02-15T13:36:21.689Z,13.55
2023-02-15T13:39:35.430Z,11.88
2023-02-15T13:42:07.349Z,11.63
2023-02-15T13:44:40.863Z,11.65
2023-02-15T13:47:26.450Z,15.02
2023-02-15T13:50:33.572Z,12.07
2023-02-15T13:53:40.562Z,11.73
2023-02-15T13:56:22.810Z,9.55
2023-02-15T13:59:30.008Z,9.15
2023-02-15T14:02:14.781Z,9.73
2023-02-15T14:05:26.971Z,9.10
2023-02-15T14:08:06.008Z,9.85
2023-02-15T14:11:09.301Z,11.68
2023-02-15T14:13:48.722Z,11.52
2023-02-15T14:17:07.287Z,9.45
2023-02-15T14:19:58.664Z,9.13
2023-02-15T14:22:47.427Z,16.33
2023-02-15T14:25:31.498Z,9.95
2023-02-15T14:28:18.549Z,9.50
2023-02-15T14:30:52.768Z,11.48
2023-02-15T14:33:43.811Z,13.50
2023-02-15T14:36:20.515Z,12.55
2023-02-15T14:39:35.045Z,11.07
2023-02-15T14:42:42.158Z,10.75
2023-02-15T14:45:56.545Z,10.98
2023-02-15T14:48:43.249Z,10.32
2023-02-15T14:51:11.299Z,10.77
2023-02-15T14:53:40.924Z,11.20
2023-02-15T14:56:15.276Z,11.73
2023-02-15T14:58:54.888Z,11.07
2023-02-15T15:01:34.592Z,11.85
2023-02-15T15:04:23.259Z,10.63
2023-02-15T15:07:24.174Z,10.77
2023-02-15T15:10:27.616Z,11.13
2023-02-15T15:12:57.779Z,10.90
2023-02-15T15:15:31.437Z,11.07
2023-02-15T15:18:08.991Z,10.93
2023-02-15T15:20:52.725Z,10.57
2023-02-15T15:23:20.162Z,11.65
2023-02-15T15:26:22.447Z,10.32
2023-02-15T15:28:50.211Z,10.40
2023-02-15T15:31:21.758Z,10.77
2023-02-15T15:34:18.583Z,10.85
2023-02-15T15:37:10.195Z,10.43
2023-02-15T15:40:08.151Z,10.32
2023-02-15T15:43:10.286Z,12.13
2023-02-15T15:46:19.044Z,14.80
2023-02-15T15:48:46.818Z,13.23
2023-02-15T15:51:29.517Z,12.57
2023-02-15T15:53:58.022Z,17.10
2023-02-15T15:56:32.537Z,20.03
2023-02-15T15:59:07.289Z,24.13
2023-02-15T16:01:53.561Z,22.60
2023-02-15T16:04:35.180Z,28.33
2023-02-15T16:07:35.208Z,24.47
2023-02-15T16:10:18.848Z,21.00
2023-02-15T16:12:52.915Z,23.47
2023-02-15T16:15:37.957Z,23.33
2023-02-15T16:18:27.645Z,23.83
2023-02-15T16:21:03.587Z,21.00
2023-02-15T16:23:39.916Z,20.97
2023-02-15T16:26:48.001Z,20.30
2023-02-15T16:29:18.431Z,18.37
2023-02-15T16:32:07.236Z,16.00
2023-02-15T16:34:35.870Z,16.40
2023-02-15T16:37:18.991Z,15.97
2023-02-15T16:39:50.211Z,20.27
2023-02-15T16:42:21.134Z,22.77
2023-02-15T16:45:18.933Z,25.70
2023-02-15T16:47:53.497Z,27.03
2023-02-15T16:50:34.484Z,26.03
2023-02-15T16:53:08.328Z,24.50
2023-02-15T16:55:44.251Z,27.17
2023-02-15T16:58:18.946Z,26.40
2023-02-15T17:00:47.752Z,27.37
2023-02-15T17:03:15.342Z,29.10
2023-02-15T17:05:50.943Z,25.20
2023-02-15T17:08:39.836Z,30.20
2023-02-15T17:11:24.992Z,28.13
2023-02-15T17:14:07.716Z,21.30
2023-02-15T17:16:38.665Z,18.40
2023-02-15T17:19:27.532Z,21.10
2023-02-15T17:22:04.352Z,24.07
2023-02-15T17:24:46.465Z,27.97
2023-02-15T17:27:23.481Z,27.20
2023-02-15T17:30:00.465Z,24.67
2023-02-15T17:32:35.381Z,25.17
2023-02-15T17:35:09.535Z,26.80
2023-02-15T17:37:45.461Z,37.70
2023-02-15T17:40:31.623Z,36.80
2023-02-15T17:43:19.138Z,36.33
2023-02-15T17:45:51.606Z,41.17
2023-02-15T17:48:35.743Z,52.83
2023-02-15T17:51:06.839Z,54.27
2023-02-15T17:53:36.693Z,76.03
2023-02-15T17:56:10.942Z,67.13
2023-02-15T17:58:39.407Z,39.53
2023-02-15T18:01:34.123Z,50.40
2023-02-15T18:04:20.821Z,39.70
2023-02-15T18:07:07.805Z,32.03
2023-02-15T18:09:54.031Z,38.23
2023-02-15T18:12:25.028Z,34.40
2023-02-15T18:15:06.177Z,34.93
2023-02-15T18:17:49.112Z,30.90
2023-02-15T18:20:30.117Z,29.47
2023-02-15T18:22:58.206Z,33.53
2023-02-15T18:25:27.824Z,26.00
2023-02-15T18:27:58.906Z,23.70
2023-02-15T18:30:27.189Z,24.30
2023-02-15T18:33:01.300Z,19.60
2023-02-15T18:35:33.961Z,17.57
2023-02-15T18:38:05.465Z,16.93
2023-02-15T18:40:33.101Z,16.10
2023-02-15T18:43:01.396Z,13.80
2023-02-15T18:45:36.216Z,17.03
2023-02-15T18:48:04.694Z,20.37
2023-02-15T18:50:36.581Z,25.33
2023-02-15T18:53:13.267Z,33.43
2023-02-15T18:55:40.758Z,28.43
2023-02-15T18:58:18.447Z,27.93
2023-02-15T19:00:50.384Z,28.70
2023-02-15T19:03:19.238Z,28.87
2023-02-15T19:05:48.741Z,25.13
2023-02-15T19:08:21.980Z,37.57
2023-02-15T19:10:53.447Z,54.83
2023-02-15T19:13:22.745Z,48.20
2023-02-15T19:15:52.981Z,48.00
2023-02-15T19:18:21.653Z,44.30
2023-02-15T19:20:50.907Z,41.83
2023-02-15T19:23:22.672Z,37.03
2023-02-15T19:25:53.157Z,42.50
2023-02-15T19:28:32.807Z,52.33
2023-02-15T19:31:00.438Z,58.67
2023-02-15T19:33:28.498Z,61.43
2023-02-15T19:35:57.895Z,54.03
2023-02-15T19:38:36.589Z,38.47
2023-02-15T19:41:09.730Z,37.17
2023-02-15T19:43:37.761Z,32.60
2023-02-15T19:46:05.745Z,25.20
2023-02-15T19:48:36.597Z,22.10
2023-02-15T19:51:06.150Z,20.47
2023-02-15T19:53:34.089Z,20.37
2023-02-15T19:56:03.967Z,17.80
2023-02-15T19:58:34.508Z,16.97
2023-02-15T20:01:04.373Z,16.90
2023-02-15T20:03:32.282Z,17.43
2023-02-15T20:06:01.261Z,18.23
2023-02-15T20:08:30.800Z,17.87
2023-02-15T20:10:59.506Z,20.67
2023-02-15T20:13:28.808Z,20.93
2023-02-15T20:16:16.322Z,21.07
2023-02-15T20:18:46.516Z,18.87
2023-02-15T20:21:17.575Z,18.13
2023-02-15T20:23:46.698Z,21.60
2023-02-15T20:26:18.490Z,22.57
2023-02-15T20:28:47.230Z,22.17
2023-02-15T20:31:18.728Z,18.60
2023-02-15T20:33:50.490Z,18.77
2023-02-15T20:36:21.123Z,16.47
2023-02-15T20:38:48.944Z,16.20
2023-02-15T20:41:36.032Z,14.03
2023-02-15T20:44:28.524Z,17.40
2023-02-15T20:46:59.291Z,79.37
2023-02-15T20:49:29.478Z,71.70
2023-02-15T20:51:58.445Z,47.80
2023-02-15T20:54:51.501Z,25.83
2023-02-15T20:57:40.065Z,18.93
2023-02-15T21:00:26.202Z,19.60
2023-02-15T21:02:59.130Z,16.53
2023-02-15T21:05:30.911Z,16.20
2023-02-15T21:07:58.534Z,14.57
2023-02-15T21:10:32.626Z,15.47
2023-02-15T21:13:01.835Z,13.03
2023-02-15T21:15:34.340Z,11.73
2023-02-15T21:18:27.237Z,10.80
2023-02-15T21:21:03.869Z,10.33
2023-02-15T21:23:40.610Z,11.40
2023-02-15T21:26:19.552Z,11.07
2023-02-15T21:28:48.258Z,11.40
2023-02-15T21:31:24.578Z,46.30
2023-02-15T21:33:52.553Z,39.10
2023-02-15T21:36:24.362Z,26.50
2023-02-15T21:38:53.820Z,26.77
2023-02-15T21:41:42.693Z,46.10
2023-02-15T21:44:40.356Z,30.13
2023-02-15T21:47:38.326Z,29.20
2023-02-15T21:50:27.404Z,28.60
2023-02-15T21:52:55.272Z,29.53
2023-02-15T21:55:22.868Z,28.40
2023-02-15T21:57:50.513Z,21.53
2023-02-15T22:00:21.699Z,18.13
2023-02-15T22:02:54.263Z,16.53
2023-02-15T22:05:27.420Z,16.27
2023-02-15T22:07:55.651Z,19.23
2023-02-15T22:10:24.454Z,20.37
2023-02-15T22:12:53.138Z,23.33
2023-02-15T22:15:23.649Z,23.10
2023-02-15T22:17:53.023Z,22.17
2023-02-15T22:20:23.797Z,23.87
2023-02-15T22:22:53.162Z,24.73
2023-02-15T22:25:26.449Z,24.87
2023-02-15T22:27:55.670Z,25.20
2023-02-15T22:30:29.392Z,23.73
2023-02-15T22:32:59.019Z,20.67
2023-02-15T22:35:29.110Z,18.77
2023-02-15T22:37:56.740Z,20.23
2023-02-15T22:40:32.699Z,18.47
2023-02-15T22:43:05.851Z,18.33
2023-02-15T22:45:36.302Z,18.40
2023-02-15T22:48:04.306Z,17.70
2023-02-15T22:50:34.792Z,18.87
2023-02-15T22:53:06.383Z,16.40
2023-02-15T22:55:38.041Z,18.83
2023-02-15T22:58:06.354Z,19.43
2023-02-15T23:00:40.567Z,20.97
2023-02-15T23:03:24.804Z,21.93
2023-02-15T23:05:53.252Z,20.70
2023-02-15T23:08:21.387Z,25.70
2023-02-15T23:10:56.216Z,28.67
2023-02-15T23:13:30.275Z,28.17
2023-02-15T23:16:04.311Z,26.33
2023-02-15T23:18:39.445Z,30.00
2023-02-15T23:21:22.987Z,26.83
2023-02-15T23:23:56.508Z,25.63
2023-02-15T23:26:31.255Z,23.13
2023-02-15T23:29:01.443Z,17.80
2023-02-15T23:31:35.046Z,17.37
2023-02-15T23:34:13.128Z,15.13
2023-02-15T23:36:40.622Z,15.37
2023-02-15T23:39:41.728Z,15.07
2023-02-15T23:42:30.752Z,14.00
2023-02-15T23:44:58.933Z,15.50
2023-02-15T23:47:55.013Z,16.20
2023-02-15T23:50:25.568Z,19.50
2023-02-15T23:52:55.405Z,21.10
2023-02-15T23:55:25.589Z,17.17
2023-02-15T23:57:57.047Z,16.57
